Main page
METAR-TAF:

METAR-TAF

Airports :

St Mary's Airport

Isles of Scilly, England

latitude: 49-55N, longitude: 006-18W, elevation: 31 m

Current weather observation

The report was made 6 hours and 1 minutes ago, at 16:50 UTC
Wind 13 kt from the South
Temperature 10°C
Humidity 76%
Pressure 992 hPa
Visibility 10 km or more
Few clouds at a height of 1600 ft
Scattered clouds at a height of 2100 ft

METAR: EGHE 211650Z 19013KT 9999 FEW016 SCT021 10/06 Q0992

Time: 22:51 (22:51 UTC)

Forecast

The report was made 8 hours and 48 minutes ago, at 14:03 UTC
Forecast valid from 21 at 15 UTC to 21 at 17 UTC
Wind 12 kt from the South
Visibility 10 km or more
Scattered clouds at a height of 2000 ft
Probability 30% :
Temporary
from 21 at 15 UTC to 21 at 17 UTC
Visibility: 4000 m
Broken clouds at a height of 1200 ft
Broken clouds at a height of 2000 ft, Cumulonimbus.
heavy rain showers

TAF: EGHE 211403Z 2115/2117 17012KT 9999 SCT020 PROB30 TEMPO 2115/2117 4000 +SHRA BKN012 BKN020CB

Weather observations and forecasts of more than 4000 airports (METAR and TAF reports).

The available stations are represented by yellow and red dots on the map.

Hover mouse over dot to see the name of the station.

Then click to see weather observations and forecasts.

To change the map : click on the green buttons with a black cross to zoom in, on the green button with a dash to zoom out, or on the green arrows for adjacent maps.


METAR-TAF: